sensor_id;sensor_type;location;lat;lon;timestamp;temperature;humidity
8856;DHT22;4464;50.882;4.730;2023-06-22T00:00:58;22.00;99.90
8856;DHT22;4464;50.882;4.730;2023-06-22T00:03:26;22.10;99.90
8856;DHT22;4464;50.882;4.730;2023-06-22T00:05:54;22.10;99.90
8856;DHT22;4464;50.882;4.730;2023-06-22T00:08:20;22.20;99.90
8856;DHT22;4464;50.882;4.730;2023-06-22T00:10:46;22.20;99.90
8856;DHT22;4464;50.882;4.730;2023-06-22T00:13:13;22.10;99.90
8856;DHT22;4464;50.882;4.730;2023-06-22T00:15:41;22.10;99.90
8856;DHT22;4464;50.882;4.730;2023-06-22T00:18:08;22.00;99.90
8856;DHT22;4464;50.882;4.730;2023-06-22T00:20:36;22.00;99.90
8856;DHT22;4464;50.882;4.730;2023-06-22T00:23:06;21.90;99.90
8856;DHT22;4464;50.882;4.730;2023-06-22T00:25:37;21.90;99.90
8856;DHT22;4464;50.882;4.730;2023-06-22T00:28:04;21.90;99.90
8856;DHT22;4464;50.882;4.730;2023-06-22T00:30:31;21.80;99.90
8856;DHT22;4464;50.882;4.730;2023-06-22T00:32:58;21.80;99.90
8856;DHT22;4464;50.882;4.730;2023-06-22T00:35:24;21.70;99.90
8856;DHT22;4464;50.882;4.730;2023-06-22T00:37:55;21.60;99.90
8856;DHT22;4464;50.882;4.730;2023-06-22T00:40:26;21.60;99.90
8856;DHT22;4464;50.882;4.730;2023-06-22T00:42:53;21.50;99.90
8856;DHT22;4464;50.882;4.730;2023-06-22T00:45:22;21.50;99.90
8856;DHT22;4464;50.882;4.730;2023-06-22T00:47:50;21.40;99.90
8856;DHT22;4464;50.882;4.730;2023-06-22T00:50:22;21.30;99.90
8856;DHT22;4464;50.882;4.730;2023-06-22T00:52:52;21.10;99.90
8856;DHT22;4464;50.882;4.730;2023-06-22T00:55:20;21.10;99.90
8856;DHT22;4464;50.882;4.730;2023-06-22T00:57:51;21.20;99.90
8856;DHT22;4464;50.882;4.730;2023-06-22T01:00:22;21.30;99.90
8856;DHT22;4464;50.882;4.730;2023-06-22T01:02:53;21.40;99.90
8856;DHT22;4464;50.882;4.730;2023-06-22T01:05:21;21.40;99.90
8856;DHT22;4464;50.882;4.730;2023-06-22T01:13:45;21.70;99.90
8856;DHT22;4464;50.882;4.730;2023-06-22T01:16:17;21.80;99.90
8856;DHT22;4464;50.882;4.730;2023-06-22T01:18:47;21.80;99.90
8856;DHT22;4464;50.882;4.730;2023-06-22T01:21:17;21.70;99.90
8856;DHT22;4464;50.882;4.730;2023-06-22T01:29:04;21.20;99.90
8856;DHT22;4464;50.882;4.730;2023-06-22T01:31:31;21.20;99.90
8856;DHT22;4464;50.882;4.730;2023-06-22T01:34:02;21.10;99.90
8856;DHT22;4464;50.882;4.730;2023-06-22T01:36:29;21.20;99.90
8856;DHT22;4464;50.882;4.730;2023-06-22T01:38:57;21.20;99.90
8856;DHT22;4464;50.882;4.730;2023-06-22T01:41:26;21.20;99.90
8856;DHT22;4464;50.882;4.730;2023-06-22T01:43:53;21.10;99.90
8856;DHT22;4464;50.882;4.730;2023-06-22T01:46:23;21.00;99.90
8856;DHT22;4464;50.882;4.730;2023-06-22T01:48:50;20.90;99.90
8856;DHT22;4464;50.882;4.730;2023-06-22T01:51:21;20.80;99.90
8856;DHT22;4464;50.882;4.730;2023-06-22T01:53:49;20.70;99.90
8856;DHT22;4464;50.882;4.730;2023-06-22T01:56:17;20.60;99.90
8856;DHT22;4464;50.882;4.730;2023-06-22T01:58:51;20.60;99.90
8856;DHT22;4464;50.882;4.730;2023-06-22T02:01:23;20.50;99.90
8856;DHT22;4464;50.882;4.730;2023-06-22T02:04:31;20.50;99.90
8856;DHT22;4464;50.882;4.730;2023-06-22T02:06:59;20.50;99.90
8856;DHT22;4464;50.882;4.730;2023-06-22T02:09:29;20.60;99.90
8856;DHT22;4464;50.882;4.730;2023-06-22T02:11:56;20.60;99.90
8856;DHT22;4464;50.882;4.730;2023-06-22T02:14:23;20.70;99.90
8856;DHT22;4464;50.882;4.730;2023-06-22T02:16:51;20.70;99.90
8856;DHT22;4464;50.882;4.730;2023-06-22T02:19:23;20.70;99.90
8856;DHT22;4464;50.882;4.730;2023-06-22T02:21:50;20.70;99.90
8856;DHT22;4464;50.882;4.730;2023-06-22T02:24:16;20.70;99.90
8856;DHT22;4464;50.882;4.730;2023-06-22T02:26:42;20.60;99.90
8856;DHT22;4464;50.882;4.730;2023-06-22T02:29:10;20.70;99.90
8856;DHT22;4464;50.882;4.730;2023-06-22T02:31:35;20.70;99.90
8856;DHT22;4464;50.882;4.730;2023-06-22T02:34:03;20.80;99.90
8856;DHT22;4464;50.882;4.730;2023-06-22T02:36:29;20.80;99.90
8856;DHT22;4464;50.882;4.730;2023-06-22T02:38:57;20.90;99.90
8856;DHT22;4464;50.882;4.730;2023-06-22T02:41:27;20.90;99.90
8856;DHT22;4464;50.882;4.730;2023-06-22T02:43:52;20.90;99.90
8856;DHT22;4464;50.882;4.730;2023-06-22T02:46:18;20.80;99.90
8856;DHT22;4464;50.882;4.730;2023-06-22T02:48:44;20.70;99.90
8856;DHT22;4464;50.882;4.730;2023-06-22T02:51:12;20.60;99.90
8856;DHT22;4464;50.882;4.730;2023-06-22T02:53:38;20.50;99.90
8856;DHT22;4464;50.882;4.730;2023-06-22T02:56:10;20.50;99.90
8856;DHT22;4464;50.882;4.730;2023-06-22T02:58:38;20.60;99.90
8856;DHT22;4464;50.882;4.730;2023-06-22T03:01:10;20.70;99.90
8856;DHT22;4464;50.882;4.730;2023-06-22T03:03:38;20.50;99.90
8856;DHT22;4464;50.882;4.730;2023-06-22T03:06:04;20.40;99.90
8856;DHT22;4464;50.882;4.730;2023-06-22T03:08:29;20.50;99.90
8856;DHT22;4464;50.882;4.730;2023-06-22T03:10:55;20.60;99.90
8856;DHT22;4464;50.882;4.730;2023-06-22T03:13:21;20.70;99.90
8856;DHT22;4464;50.882;4.730;2023-06-22T03:15:47;20.70;99.90
8856;DHT22;4464;50.882;4.730;2023-06-22T03:18:12;20.70;99.90
8856;DHT22;4464;50.882;4.730;2023-06-22T03:20:38;20.70;99.90
8856;DHT22;4464;50.882;4.730;2023-06-22T03:23:04;20.70;99.90
8856;DHT22;4464;50.882;4.730;2023-06-22T03:25:32;20.70;99.90
8856;DHT22;4464;50.882;4.730;2023-06-22T03:27:59;20.70;99.90
8856;DHT22;4464;50.882;4.730;2023-06-22T03:30:25;20.50;99.90
8856;DHT22;4464;50.882;4.730;2023-06-22T03:32:51;20.40;99.90
8856;DHT22;4464;50.882;4.730;2023-06-22T03:35:19;20.30;99.90
8856;DHT22;4464;50.882;4.730;2023-06-22T03:37:45;20.30;99.90
8856;DHT22;4464;50.882;4.730;2023-06-22T03:40:11;20.40;99.90
8856;DHT22;4464;50.882;4.730;2023-06-22T03:42:37;20.40;99.90
8856;DHT22;4464;50.882;4.730;2023-06-22T03:45:03;20.40;99.90
8856;DHT22;4464;50.882;4.730;2023-06-22T03:47:29;20.50;99.90
8856;DHT22;4464;50.882;4.730;2023-06-22T03:49:57;20.40;99.90
8856;DHT22;4464;50.882;4.730;2023-06-22T03:52:25;20.40;99.90
8856;DHT22;4464;50.882;4.730;2023-06-22T03:54:51;20.40;99.90
8856;DHT22;4464;50.882;4.730;2023-06-22T03:57:18;20.30;99.90
8856;DHT22;4464;50.882;4.730;2023-06-22T03:59:44;20.30;99.90
8856;DHT22;4464;50.882;4.730;2023-06-22T04:02:10;20.20;99.90
8856;DHT22;4464;50.882;4.730;2023-06-22T04:04:38;20.20;99.90
8856;DHT22;4464;50.882;4.730;2023-06-22T04:07:07;20.30;99.90
8856;DHT22;4464;50.882;4.730;2023-06-22T04:09:33;20.50;99.90
8856;DHT22;4464;50.882;4.730;2023-06-22T04:12:03;20.60;99.90
8856;DHT22;4464;50.882;4.730;2023-06-22T04:14:29;20.70;99.90
8856;DHT22;4464;50.882;4.730;2023-06-22T04:16:55;20.60;99.90
8856;DHT22;4464;50.882;4.730;2023-06-22T04:19:21;20.50;99.90
8856;DHT22;4464;50.882;4.730;2023-06-22T04:21:46;20.50;99.90
8856;DHT22;4464;50.882;4.730;2023-06-22T04:24:16;20.50;99.90
8856;DHT22;4464;50.882;4.730;2023-06-22T04:26:42;20.50;99.90
8856;DHT22;4464;50.882;4.730;2023-06-22T04:29:10;20.50;99.90
8856;DHT22;4464;50.882;4.730;2023-06-22T04:31:36;20.50;99.90
8856;DHT22;4464;50.882;4.730;2023-06-22T04:34:07;20.60;99.90
8856;DHT22;4464;50.882;4.730;2023-06-22T04:36:37;20.60;99.90
8856;DHT22;4464;50.882;4.730;2023-06-22T04:39:12;20.60;99.90
8856;DHT22;4464;50.882;4.730;2023-06-22T04:41:39;20.80;99.90
8856;DHT22;4464;50.882;4.730;2023-06-22T04:44:12;20.70;99.90
8856;DHT22;4464;50.882;4.730;2023-06-22T04:46:38;20.70;99.90
8856;DHT22;4464;50.882;4.730;2023-06-22T04:49:06;20.70;99.90
8856;DHT22;4464;50.882;4.730;2023-06-22T04:51:38;20.70;99.90
8856;DHT22;4464;50.882;4.730;2023-06-22T04:54:07;20.70;99.90
8856;DHT22;4464;50.882;4.730;2023-06-22T04:56:33;20.80;99.90
8856;DHT22;4464;50.882;4.730;2023-06-22T04:59:00;20.80;99.90
8856;DHT22;4464;50.882;4.730;2023-06-22T05:01:28;20.80;99.90
8856;DHT22;4464;50.882;4.730;2023-06-22T05:03:54;21.00;99.90
8856;DHT22;4464;50.882;4.730;2023-06-22T05:06:24;21.10;99.90
8856;DHT22;4464;50.882;4.730;2023-06-22T05:08:54;21.10;99.90
8856;DHT22;4464;50.882;4.730;2023-06-22T05:11:32;21.30;99.90
8856;DHT22;4464;50.882;4.730;2023-06-22T05:13:57;21.30;99.90
8856;DHT22;4464;50.882;4.730;2023-06-22T05:16:24;21.40;99.90
8856;DHT22;4464;50.882;4.730;2023-06-22T05:18:59;21.30;99.90
8856;DHT22;4464;50.882;4.730;2023-06-22T05:21:26;21.30;99.90
8856;DHT22;4464;50.882;4.730;2023-06-22T05:23:53;21.30;99.90
8856;DHT22;4464;50.882;4.730;2023-06-22T05:26:20;21.30;99.90
8856;DHT22;4464;50.882;4.730;2023-06-22T05:28:46;21.30;99.90
8856;DHT22;4464;50.882;4.730;2023-06-22T05:31:16;21.30;99.90
8856;DHT22;4464;50.882;4.730;2023-06-22T05:33:43;21.50;99.90
8856;DHT22;4464;50.882;4.730;2023-06-22T05:36:09;21.60;99.90
8856;DHT22;4464;50.882;4.730;2023-06-22T05:38:38;21.60;99.90
8856;DHT22;4464;50.882;4.730;2023-06-22T05:41:05;21.60;99.90
8856;DHT22;4464;50.882;4.730;2023-06-22T05:43:31;21.60;99.90
8856;DHT22;4464;50.882;4.730;2023-06-22T05:45:57;21.20;99.90
8856;DHT22;4464;50.882;4.730;2023-06-22T05:48:23;21.10;99.90
8856;DHT22;4464;50.882;4.730;2023-06-22T05:50:50;21.00;99.90
8856;DHT22;4464;50.882;4.730;2023-06-22T05:53:15;21.10;99.90
8856;DHT22;4464;50.882;4.730;2023-06-22T05:55:41;21.30;99.90
8856;DHT22;4464;50.882;4.730;2023-06-22T05:58:08;21.30;99.90
8856;DHT22;4464;50.882;4.730;2023-06-22T06:00:36;21.50;99.90
8856;DHT22;4464;50.882;4.730;2023-06-22T06:03:02;21.50;99.90
8856;DHT22;4464;50.882;4.730;2023-06-22T06:05:33;21.50;99.90
8856;DHT22;4464;50.882;4.730;2023-06-22T06:08:04;21.30;99.90
8856;DHT22;4464;50.882;4.730;2023-06-22T06:10:31;21.30;99.90
8856;DHT22;4464;50.882;4.730;2023-06-22T06:13:00;21.50;99.90
8856;DHT22;4464;50.882;4.730;2023-06-22T06:15:30;21.60;99.90
8856;DHT22;4464;50.882;4.730;2023-06-22T06:17:59;21.60;99.90
8856;DHT22;4464;50.882;4.730;2023-06-22T06:20:26;21.40;99.90
8856;DHT22;4464;50.882;4.730;2023-06-22T06:22:53;21.50;99.90
8856;DHT22;4464;50.882;4.730;2023-06-22T06:25:21;21.60;99.90
8856;DHT22;4464;50.882;4.730;2023-06-22T06:27:48;21.70;99.90
8856;DHT22;4464;50.882;4.730;2023-06-22T06:30:16;21.80;99.90
8856;DHT22;4464;50.882;4.730;2023-06-22T06:32:46;21.70;99.90
8856;DHT22;4464;50.882;4.730;2023-06-22T06:35:13;22.00;99.90
8856;DHT22;4464;50.882;4.730;2023-06-22T06:37:44;22.10;99.90
8856;DHT22;4464;50.882;4.730;2023-06-22T06:40:11;22.30;99.90
8856;DHT22;4464;50.882;4.730;2023-06-22T06:42:45;22.50;99.90
8856;DHT22;4464;50.882;4.730;2023-06-22T06:45:18;22.60;99.90
8856;DHT22;4464;50.882;4.730;2023-06-22T06:47:47;22.80;99.90
8856;DHT22;4464;50.882;4.730;2023-06-22T06:50:15;23.00;99.90
8856;DHT22;4464;50.882;4.730;2023-06-22T06:52:41;23.20;99.90
8856;DHT22;4464;50.882;4.730;2023-06-22T06:55:08;23.40;99.90
8856;DHT22;4464;50.882;4.730;2023-06-22T06:57:40;23.50;99.90
8856;DHT22;4464;50.882;4.730;2023-06-22T07:00:12;23.50;99.90
8856;DHT22;4464;50.882;4.730;2023-06-22T07:02:45;23.40;99.90
8856;DHT22;4464;50.882;4.730;2023-06-22T07:05:13;23.10;99.90
8856;DHT22;4464;50.882;4.730;2023-06-22T07:07:41;23.00;99.90
8856;DHT22;4464;50.882;4.730;2023-06-22T07:10:08;22.60;99.90
8856;DHT22;4464;50.882;4.730;2023-06-22T07:12:34;22.70;99.90
8856;DHT22;4464;50.882;4.730;2023-06-22T07:15:07;22.70;99.90
8856;DHT22;4464;50.882;4.730;2023-06-22T07:17:36;22.50;99.90
8856;DHT22;4464;50.882;4.730;2023-06-22T07:20:03;22.50;99.90
8856;DHT22;4464;50.882;4.730;2023-06-22T07:22:33;22.60;99.90
8856;DHT22;4464;50.882;4.730;2023-06-22T07:24:59;22.70;99.90
8856;DHT22;4464;50.882;4.730;2023-06-22T07:27:25;22.70;99.90
8856;DHT22;4464;50.882;4.730;2023-06-22T07:29:51;22.80;99.90
8856;DHT22;4464;50.882;4.730;2023-06-22T07:32:16;22.80;99.90
8856;DHT22;4464;50.882;4.730;2023-06-22T07:34:42;22.60;99.90
8856;DHT22;4464;50.882;4.730;2023-06-22T07:37:11;22.70;99.90
8856;DHT22;4464;50.882;4.730;2023-06-22T07:39:39;22.60;99.90
8856;DHT22;4464;50.882;4.730;2023-06-22T07:42:07;22.60;99.90
8856;DHT22;4464;50.882;4.730;2023-06-22T07:44:33;22.60;99.90
8856;DHT22;4464;50.882;4.730;2023-06-22T07:46:59;22.70;99.90
8856;DHT22;4464;50.882;4.730;2023-06-22T07:49:25;22.70;99.90
8856;DHT22;4464;50.882;4.730;2023-06-22T07:51:55;22.70;99.90
8856;DHT22;4464;50.882;4.730;2023-06-22T07:54:21;22.50;99.90
8856;DHT22;4464;50.882;4.730;2023-06-22T07:56:47;22.40;99.90
8856;DHT22;4464;50.882;4.730;2023-06-22T07:59:12;22.40;99.90
8856;DHT22;4464;50.882;4.730;2023-06-22T08:01:38;22.30;99.90
8856;DHT22;4464;50.882;4.730;2023-06-22T08:04:04;22.30;99.90
8856;DHT22;4464;50.882;4.730;2023-06-22T08:06:31;22.20;99.90
8856;DHT22;4464;50.882;4.730;2023-06-22T08:08:58;22.20;99.90
8856;DHT22;4464;50.882;4.730;2023-06-22T08:11:24;22.10;99.90
8856;DHT22;4464;50.882;4.730;2023-06-22T08:13:53;22.00;99.90
8856;DHT22;4464;50.882;4.730;2023-06-22T08:16:21;22.00;99.90
8856;DHT22;4464;50.882;4.730;2023-06-22T08:18:49;22.10;99.90
8856;DHT22;4464;50.882;4.730;2023-06-22T08:21:15;22.10;99.90
8856;DHT22;4464;50.882;4.730;2023-06-22T08:23:41;22.10;99.90
8856;DHT22;4464;50.882;4.730;2023-06-22T08:26:06;22.10;99.90
8856;DHT22;4464;50.882;4.730;2023-06-22T08:28:32;22.00;99.90
8856;DHT22;4464;50.882;4.730;2023-06-22T08:31:02;22.10;99.90
8856;DHT22;4464;50.882;4.730;2023-06-22T08:33:28;22.20;99.90
8856;DHT22;4464;50.882;4.730;2023-06-22T08:35:56;22.20;99.90
8856;DHT22;4464;50.882;4.730;2023-06-22T08:38:22;22.10;99.90
8856;DHT22;4464;50.882;4.730;2023-06-22T08:40:48;22.00;99.90
8856;DHT22;4464;50.882;4.730;2023-06-22T08:43:14;22.10;99.90
8856;DHT22;4464;50.882;4.730;2023-06-22T08:45:40;22.20;99.90
8856;DHT22;4464;50.882;4.730;2023-06-22T08:48:07;22.20;99.90
8856;DHT22;4464;50.882;4.730;2023-06-22T08:50:33;22.30;99.90
8856;DHT22;4464;50.882;4.730;2023-06-22T08:52:59;22.30;99.90
8856;DHT22;4464;50.882;4.730;2023-06-22T08:55:25;22.40;99.90
8856;DHT22;4464;50.882;4.730;2023-06-22T08:57:50;22.30;99.90
8856;DHT22;4464;50.882;4.730;2023-06-22T09:00:17;22.30;99.90
8856;DHT22;4464;50.882;4.730;2023-06-22T09:02:45;22.40;99.90
8856;DHT22;4464;50.882;4.730;2023-06-22T09:05:11;22.50;99.90
8856;DHT22;4464;50.882;4.730;2023-06-22T09:07:37;22.60;99.90
8856;DHT22;4464;50.882;4.730;2023-06-22T09:10:05;22.70;99.90
8856;DHT22;4464;50.882;4.730;2023-06-22T09:12:36;22.60;99.90
8856;DHT22;4464;50.882;4.730;2023-06-22T09:15:05;22.50;99.90
8856;DHT22;4464;50.882;4.730;2023-06-22T09:17:33;22.60;99.90
8856;DHT22;4464;50.882;4.730;2023-06-22T09:19:59;22.60;99.90
8856;DHT22;4464;50.882;4.730;2023-06-22T09:22:24;22.60;99.90
8856;DHT22;4464;50.882;4.730;2023-06-22T09:24:55;22.50;99.90
8856;DHT22;4464;50.882;4.730;2023-06-22T09:27:21;22.50;99.90
8856;DHT22;4464;50.882;4.730;2023-06-22T09:29:48;22.40;99.90
8856;DHT22;4464;50.882;4.730;2023-06-22T09:32:14;22.40;99.90
8856;DHT22;4464;50.882;4.730;2023-06-22T09:34:44;22.40;99.90
8856;DHT22;4464;50.882;4.730;2023-06-22T09:37:12;22.40;99.90
8856;DHT22;4464;50.882;4.730;2023-06-22T09:39:38;22.40;99.90
8856;DHT22;4464;50.882;4.730;2023-06-22T09:42:07;22.30;99.90
8856;DHT22;4464;50.882;4.730;2023-06-22T09:44:32;22.20;99.90
8856;DHT22;4464;50.882;4.730;2023-06-22T09:46:58;22.10;99.90
8856;DHT22;4464;50.882;4.730;2023-06-22T09:49:26;21.90;99.90
8856;DHT22;4464;50.882;4.730;2023-06-22T09:51:52;21.80;99.90
8856;DHT22;4464;50.882;4.730;2023-06-22T09:54:18;21.60;99.90
8856;DHT22;4464;50.882;4.730;2023-06-22T09:56:43;21.40;99.90
8856;DHT22;4464;50.882;4.730;2023-06-22T09:59:09;21.10;99.90
8856;DHT22;4464;50.882;4.730;2023-06-22T10:01:35;20.60;99.90
8856;DHT22;4464;50.882;4.730;2023-06-22T10:04:02;20.50;99.90
8856;DHT22;4464;50.882;4.730;2023-06-22T10:06:28;20.30;99.90
8856;DHT22;4464;50.882;4.730;2023-06-22T10:08:54;20.30;99.90
8856;DHT22;4464;50.882;4.730;2023-06-22T10:11:19;20.10;99.90
8856;DHT22;4464;50.882;4.730;2023-06-22T10:13:52;19.80;99.90
8856;DHT22;4464;50.882;4.730;2023-06-22T10:16:20;19.60;99.90
8856;DHT22;4464;50.882;4.730;2023-06-22T10:18:46;19.60;99.90
8856;DHT22;4464;50.882;4.730;2023-06-22T10:21:11;19.50;99.90
8856;DHT22;4464;50.882;4.730;2023-06-22T10:23:37;19.30;99.90
8856;DHT22;4464;50.882;4.730;2023-06-22T10:26:03;19.20;99.90
8856;DHT22;4464;50.882;4.730;2023-06-22T10:28:29;19.30;99.90
8856;DHT22;4464;50.882;4.730;2023-06-22T10:30:56;19.20;99.90
8856;DHT22;4464;50.882;4.730;2023-06-22T10:33:22;19.30;99.90
8856;DHT22;4464;50.882;4.730;2023-06-22T10:35:51;19.20;99.90
8856;DHT22;4464;50.882;4.730;2023-06-22T10:38:19;19.20;99.90
8856;DHT22;4464;50.882;4.730;2023-06-22T10:40:45;19.10;99.90
8856;DHT22;4464;50.882;4.730;2023-06-22T10:43:11;19.00;99.90
8856;DHT22;4464;50.882;4.730;2023-06-22T10:45:37;19.10;99.90
8856;DHT22;4464;50.882;4.730;2023-06-22T10:48:04;19.10;99.90
8856;DHT22;4464;50.882;4.730;2023-06-22T10:50:30;19.00;99.90
8856;DHT22;4464;50.882;4.730;2023-06-22T10:52:59;19.00;99.90
8856;DHT22;4464;50.882;4.730;2023-06-22T10:55:30;19.00;99.90
8856;DHT22;4464;50.882;4.730;2023-06-22T10:57:55;19.00;99.90
8856;DHT22;4464;50.882;4.730;2023-06-22T11:00:24;18.80;99.90
8856;DHT22;4464;50.882;4.730;2023-06-22T11:02:49;18.90;99.90
8856;DHT22;4464;50.882;4.730;2023-06-22T11:05:15;18.90;99.90
8856;DHT22;4464;50.882;4.730;2023-06-22T11:07:43;19.00;99.90
8856;DHT22;4464;50.882;4.730;2023-06-22T11:10:10;19.10;99.90
8856;DHT22;4464;50.882;4.730;2023-06-22T11:12:36;19.10;99.90
8856;DHT22;4464;50.882;4.730;2023-06-22T11:15:02;19.20;99.90
8856;DHT22;4464;50.882;4.730;2023-06-22T11:17:30;19.30;99.90
8856;DHT22;4464;50.882;4.730;2023-06-22T11:19:56;19.40;99.90
8856;DHT22;4464;50.882;4.730;2023-06-22T11:22:21;19.40;99.90
8856;DHT22;4464;50.882;4.730;2023-06-22T11:24:49;19.30;99.90
8856;DHT22;4464;50.882;4.730;2023-06-22T11:27:15;19.30;99.90
8856;DHT22;4464;50.882;4.730;2023-06-22T11:29:41;19.30;99.90
8856;DHT22;4464;50.882;4.730;2023-06-22T11:32:07;19.30;99.90
8856;DHT22;4464;50.882;4.730;2023-06-22T11:34:33;19.30;99.90
8856;DHT22;4464;50.882;4.730;2023-06-22T11:36:59;19.30;99.90
8856;DHT22;4464;50.882;4.730;2023-06-22T11:39:24;19.30;99.90
8856;DHT22;4464;50.882;4.730;2023-06-22T11:41:50;19.30;99.90
8856;DHT22;4464;50.882;4.730;2023-06-22T11:44:16;19.20;99.90
8856;DHT22;4464;50.882;4.730;2023-06-22T11:46:44;19.20;99.90
8856;DHT22;4464;50.882;4.730;2023-06-22T11:49:09;19.00;99.90
8856;DHT22;4464;50.882;4.730;2023-06-22T11:51:35;19.00;99.90
8856;DHT22;4464;50.882;4.730;2023-06-22T11:54:02;19.00;99.90
8856;DHT22;4464;50.882;4.730;2023-06-22T11:56:28;19.00;99.90
8856;DHT22;4464;50.882;4.730;2023-06-22T11:58:57;19.00;99.90
8856;DHT22;4464;50.882;4.730;2023-06-22T12:01:23;19.00;99.90
8856;DHT22;4464;50.882;4.730;2023-06-22T12:03:51;19.00;99.90
8856;DHT22;4464;50.882;4.730;2023-06-22T12:06:17;19.10;99.90
8856;DHT22;4464;50.882;4.730;2023-06-22T12:08:45;19.30;99.90
8856;DHT22;4464;50.882;4.730;2023-06-22T12:11:11;19.30;99.90
8856;DHT22;4464;50.882;4.730;2023-06-22T12:13:36;19.30;99.90
8856;DHT22;4464;50.882;4.730;2023-06-22T12:16:02;19.30;99.90
8856;DHT22;4464;50.882;4.730;2023-06-22T12:18:28;19.30;99.90
8856;DHT22;4464;50.882;4.730;2023-06-22T12:20:54;19.20;99.90
8856;DHT22;4464;50.882;4.730;2023-06-22T12:23:19;19.20;99.90
8856;DHT22;4464;50.882;4.730;2023-06-22T12:25:47;19.20;99.90
8856;DHT22;4464;50.882;4.730;2023-06-22T12:28:13;19.10;99.90
8856;DHT22;4464;50.882;4.730;2023-06-22T12:30:39;19.10;99.90
8856;DHT22;4464;50.882;4.730;2023-06-22T12:33:07;19.10;99.90
8856;DHT22;4464;50.882;4.730;2023-06-22T12:35:33;19.00;99.90
8856;DHT22;4464;50.882;4.730;2023-06-22T12:37:59;19.00;99.90
8856;DHT22;4464;50.882;4.730;2023-06-22T12:40:27;19.00;99.90
8856;DHT22;4464;50.882;4.730;2023-06-22T12:42:55;19.00;99.90
8856;DHT22;4464;50.882;4.730;2023-06-22T12:45:21;19.00;99.90
8856;DHT22;4464;50.882;4.730;2023-06-22T12:47:46;18.90;99.90
8856;DHT22;4464;50.882;4.730;2023-06-22T12:50:12;18.90;99.90
8856;DHT22;4464;50.882;4.730;2023-06-22T12:52:40;18.80;99.90
8856;DHT22;4464;50.882;4.730;2023-06-22T12:55:07;18.90;99.90
8856;DHT22;4464;50.882;4.730;2023-06-22T12:57:35;19.00;99.90
8856;DHT22;4464;50.882;4.730;2023-06-22T13:00:00;19.00;99.90
8856;DHT22;4464;50.882;4.730;2023-06-22T13:02:26;18.90;99.90
8856;DHT22;4464;50.882;4.730;2023-06-22T13:04:52;18.90;99.90
8856;DHT22;4464;50.882;4.730;2023-06-22T13:07:20;18.90;99.90
8856;DHT22;4464;50.882;4.730;2023-06-22T13:09:46;18.90;99.90
8856;DHT22;4464;50.882;4.730;2023-06-22T13:12:12;18.90;99.90
8856;DHT22;4464;50.882;4.730;2023-06-22T13:14:37;18.90;99.90
8856;DHT22;4464;50.882;4.730;2023-06-22T13:17:03;18.90;99.90
8856;DHT22;4464;50.882;4.730;2023-06-22T13:19:29;18.90;99.90
8856;DHT22;4464;50.882;4.730;2023-06-22T13:21:58;18.90;99.90
8856;DHT22;4464;50.882;4.730;2023-06-22T13:24:24;18.90;99.90
8856;DHT22;4464;50.882;4.730;2023-06-22T13:26:50;18.90;99.90
8856;DHT22;4464;50.882;4.730;2023-06-22T13:29:15;18.90;99.90
8856;DHT22;4464;50.882;4.730;2023-06-22T13:31:41;18.90;99.90
8856;DHT22;4464;50.882;4.730;2023-06-22T13:34:07;18.90;99.90
8856;DHT22;4464;50.882;4.730;2023-06-22T13:36:36;18.80;99.90
8856;DHT22;4464;50.882;4.730;2023-06-22T13:39:04;18.90;99.90
8856;DHT22;4464;50.882;4.730;2023-06-22T13:41:30;18.80;99.90
8856;DHT22;4464;50.882;4.730;2023-06-22T13:43:55;18.80;99.90
8856;DHT22;4464;50.882;4.730;2023-06-22T13:46:23;18.90;99.90
8856;DHT22;4464;50.882;4.730;2023-06-22T13:48:49;19.00;99.90
8856;DHT22;4464;50.882;4.730;2023-06-22T13:51:15;18.90;99.90
8856;DHT22;4464;50.882;4.730;2023-06-22T13:53:43;18.90;99.90
8856;DHT22;4464;50.882;4.730;2023-06-22T13:56:08;18.90;99.90
8856;DHT22;4464;50.882;4.730;2023-06-22T13:58:35;19.00;99.90
8856;DHT22;4464;50.882;4.730;2023-06-22T14:01:03;19.00;99.90
8856;DHT22;4464;50.882;4.730;2023-06-22T14:03:31;18.90;99.90
8856;DHT22;4464;50.882;4.730;2023-06-22T14:05:56;19.00;99.90
8856;DHT22;4464;50.882;4.730;2023-06-22T14:08:23;19.00;99.90
8856;DHT22;4464;50.882;4.730;2023-06-22T14:10:52;18.90;99.90
8856;DHT22;4464;50.882;4.730;2023-06-22T14:13:19;18.90;99.90
8856;DHT22;4464;50.882;4.730;2023-06-22T14:15:45;19.00;99.90
8856;DHT22;4464;50.882;4.730;2023-06-22T14:18:14;18.80;99.90
8856;DHT22;4464;50.882;4.730;2023-06-22T14:20:40;18.90;99.90
8856;DHT22;4464;50.882;4.730;2023-06-22T14:23:06;18.90;99.90
8856;DHT22;4464;50.882;4.730;2023-06-22T14:25:33;18.90;99.90
8856;DHT22;4464;50.882;4.730;2023-06-22T14:27:59;18.90;99.90
8856;DHT22;4464;50.882;4.730;2023-06-22T14:30:25;18.90;99.90
8856;DHT22;4464;50.882;4.730;2023-06-22T14:32:50;18.90;99.90
8856;DHT22;4464;50.882;4.730;2023-06-22T14:35:16;18.70;99.90
8856;DHT22;4464;50.882;4.730;2023-06-22T14:37:45;18.60;99.90
8856;DHT22;4464;50.882;4.730;2023-06-22T14:40:16;18.60;99.90
8856;DHT22;4464;50.882;4.730;2023-06-22T14:42:42;18.60;99.90
8856;DHT22;4464;50.882;4.730;2023-06-22T14:45:08;18.60;99.90
8856;DHT22;4464;50.882;4.730;2023-06-22T14:47:33;18.70;99.90
8856;DHT22;4464;50.882;4.730;2023-06-22T14:49:59;18.60;99.90
8856;DHT22;4464;50.882;4.730;2023-06-22T14:52:32;18.70;99.90
8856;DHT22;4464;50.882;4.730;2023-06-22T14:54:58;18.70;99.90
8856;DHT22;4464;50.882;4.730;2023-06-22T14:57:23;18.70;99.90
8856;DHT22;4464;50.882;4.730;2023-06-22T14:59:49;18.80;99.90
8856;DHT22;4464;50.882;4.730;2023-06-22T15:02:16;19.00;99.90
8856;DHT22;4464;50.882;4.730;2023-06-22T15:04:41;18.90;99.90
8856;DHT22;4464;50.882;4.730;2023-06-22T15:07:07;18.90;99.90
8856;DHT22;4464;50.882;4.730;2023-06-22T15:09:35;18.80;99.90
8856;DHT22;4464;50.882;4.730;2023-06-22T15:12:01;18.90;99.90
8856;DHT22;4464;50.882;4.730;2023-06-22T15:14:28;18.90;99.90
8856;DHT22;4464;50.882;4.730;2023-06-22T15:16:55;18.90;99.90
8856;DHT22;4464;50.882;4.730;2023-06-22T15:19:20;18.90;99.90
8856;DHT22;4464;50.882;4.730;2023-06-22T15:21:49;19.00;99.90
8856;DHT22;4464;50.882;4.730;2023-06-22T15:24:14;19.10;99.90
8856;DHT22;4464;50.882;4.730;2023-06-22T15:26:42;19.20;99.90
8856;DHT22;4464;50.882;4.730;2023-06-22T15:29:11;19.20;99.90
8856;DHT22;4464;50.882;4.730;2023-06-22T15:31:39;19.20;99.90
8856;DHT22;4464;50.882;4.730;2023-06-22T15:34:05;19.30;99.90
8856;DHT22;4464;50.882;4.730;2023-06-22T15:36:31;19.30;99.90
8856;DHT22;4464;50.882;4.730;2023-06-22T15:38:56;19.20;99.90
8856;DHT22;4464;50.882;4.730;2023-06-22T15:41:25;19.10;99.90
8856;DHT22;4464;50.882;4.730;2023-06-22T15:43:52;19.10;99.90
8856;DHT22;4464;50.882;4.730;2023-06-22T15:46:18;19.10;99.90
8856;DHT22;4464;50.882;4.730;2023-06-22T15:48:46;19.10;99.90
8856;DHT22;4464;50.882;4.730;2023-06-22T15:51:12;19.10;99.90
8856;DHT22;4464;50.882;4.730;2023-06-22T15:53:39;19.10;99.90
8856;DHT22;4464;50.882;4.730;2023-06-22T15:56:05;19.10;99.90
8856;DHT22;4464;50.882;4.730;2023-06-22T15:58:37;19.00;99.90
8856;DHT22;4464;50.882;4.730;2023-06-22T16:01:06;18.90;99.90
8856;DHT22;4464;50.882;4.730;2023-06-22T16:03:32;19.10;99.90
8856;DHT22;4464;50.882;4.730;2023-06-22T16:05:58;19.20;99.90
8856;DHT22;4464;50.882;4.730;2023-06-22T16:08:26;19.20;99.90
8856;DHT22;4464;50.882;4.730;2023-06-22T16:10:58;19.10;99.90
8856;DHT22;4464;50.882;4.730;2023-06-22T16:13:23;19.10;99.90